Time;durP1;ratioP1;P1;durP2;ratioP2;P2;SDS_P1;SDS_P2;PMS_P1;PMS_P2;Temp;Humidity;BMP_temperature;BMP_pressure;BME280_temperature;BME280_humidity;BME280_pressure;Samples;Min_cycle;Max_cycle;Signal;HPM_P1;HPM_P2
2023/07/07 00:01:30;;;;;;;5.97;3.60;;;;;;;;;;6213646;23;20024;-63
2023/07/07 00:03:56;;;;;;;5.80;3.53;;;;;;;;;;6213862;23;20013;-63
2023/07/07 00:06:22;;;;;;;4.25;3.10;;;;;;;;;;6213403;23;20047;-63
2023/07/07 00:08:48;;;;;;;3.85;2.70;;;;;;;;;;6213839;23;20079;-63
2023/07/07 00:11:14;;;;;;;4.47;3.75;;;;;;;;;;6213841;23;20047;-63
2023/07/07 00:13:40;;;;;;;4.15;3.10;;;;;;;;;;6213350;23;20016;-63
2023/07/07 00:16:06;;;;;;;8.02;3.58;;;;;;;;;;6213753;23;20068;-63
2023/07/07 00:18:32;;;;;;;6.80;3.95;;;;;;;;;;6213490;23;20043;-63
2023/07/07 00:21:00;;;;;;;6.57;3.08;;;;;;;;;;6213223;23;20063;-63
2023/07/07 00:23:26;;;;;;;4.43;3.05;;;;;;;;;;6213245;23;20012;-63
2023/07/07 00:26:02;;;;;;;4.00;3.05;;;;;;;;;;6213703;23;20026;-63
2023/07/07 00:28:28;;;;;;;7.75;3.08;;;;;;;;;;6212657;23;20036;-63
2023/07/07 00:30:54;;;;;;;6.13;3.20;;;;;;;;;;6213464;23;20020;-63
2023/07/07 00:33:20;;;;;;;5.65;3.03;;;;;;;;;;6213503;23;20151;-63
2023/07/07 00:35:47;;;;;;;4.55;2.97;;;;;;;;;;6212716;23;20016;-63
2023/07/07 00:38:13;;;;;;;5.60;3.22;;;;;;;;;;6213301;23;20043;-63
2023/07/07 00:40:39;;;;;;;4.22;3.00;;;;;;;;;;6213537;23;20017;-63
2023/07/07 00:43:11;;;;;;;4.82;3.40;;;;;;;;;;6213353;23;20008;-63
2023/07/07 00:45:37;;;;;;;6.03;3.42;;;;;;;;;;6213464;23;20012;-63
2023/07/07 00:48:04;;;;;;;6.85;3.28;;;;;;;;;;6213119;23;20011;-63
2023/07/07 00:50:33;;;;;;;5.25;3.33;;;;;;;;;;6213542;23;20376;-63
2023/07/07 00:53:00;;;;;;;4.55;3.22;;;;;;;;;;6213149;23;20017;-63
2023/07/07 00:55:32;;;;;;;4.50;3.40;;;;;;;;;;6213536;23;20020;-63
2023/07/07 00:58:02;;;;;;;5.55;3.45;;;;;;;;;;6213035;23;20008;-63
2023/07/07 01:00:28;;;;;;;4.63;3.25;;;;;;;;;;6213390;23;20008;-63
2023/07/07 01:02:57;;;;;;;4.40;3.22;;;;;;;;;;6213058;23;20026;-63
2023/07/07 01:05:26;;;;;;;5.97;3.33;;;;;;;;;;6213173;23;20015;-63
2023/07/07 01:07:53;;;;;;;6.18;3.70;;;;;;;;;;6213329;23;20067;-63
2023/07/07 01:10:22;;;;;;;6.32;4.07;;;;;;;;;;6213242;23;20012;-63
2023/07/07 01:12:49;;;;;;;5.35;3.80;;;;;;;;;;6212739;23;20424;-63
2023/07/07 01:15:15;;;;;;;4.18;3.78;;;;;;;;;;6186248;23;20455;-63
2023/07/07 01:17:41;;;;;;;5.43;4.13;;;;;;;;;;6186145;23;20028;-63
2023/07/07 01:20:12;;;;;;;8.43;4.82;;;;;;;;;;6213194;23;20420;-63
2023/07/07 01:22:54;;;;;;;6.03;4.43;;;;;;;;;;6212500;23;20020;-63
2023/07/07 01:25:23;;;;;;;5.80;4.15;;;;;;;;;;6213284;23;20012;-63
2023/07/07 01:28:11;;;;;;;10.82;7.07;;;;;;;;;;6212553;23;20063;-63
2023/07/07 01:31:16;;;;;;;8.70;4.57;;;;;;;;;;6213115;23;20015;-63
2023/07/07 01:33:42;;;;;;;7.45;4.13;;;;;;;;;;6090772;23;20049;-63
2023/07/07 01:36:08;;;;;;;7.35;4.80;;;;;;;;;;6090207;23;20022;-63
2023/07/07 01:38:39;;;;;;;6.72;4.53;;;;;;;;;;6148317;23;20293;-63
2023/07/07 01:41:17;;;;;;;6.50;4.78;;;;;;;;;;6212635;23;20012;-63
2023/07/07 01:44:02;;;;;;;6.65;4.30;;;;;;;;;;6212389;23;20087;-63
2023/07/07 01:46:34;;;;;;;6.13;4.82;;;;;;;;;;6212931;23;20013;-63
2023/07/07 01:49:06;;;;;;;5.43;4.70;;;;;;;;;;6212948;23;20052;-63
2023/07/07 01:51:38;;;;;;;6.85;4.90;;;;;;;;;;6212296;23;20021;-63
2023/07/07 01:54:04;;;;;;;7.60;4.90;;;;;;;;;;6212912;23;20021;-63
2023/07/07 01:56:31;;;;;;;8.93;5.20;;;;;;;;;;6213004;23;20052;-63
2023/07/07 01:58:58;;;;;;;8.68;5.85;;;;;;;;;;6212151;23;20012;-63
2023/07/07 02:01:24;;;;;;;9.73;6.85;;;;;;;;;;6212217;23;20013;-63
2023/07/07 02:03:50;;;;;;;9.35;7.47;;;;;;;;;;6212559;23;20769;-63
2023/07/07 02:06:16;;;;;;;11.38;6.93;;;;;;;;;;6211887;23;20040;-63
2023/07/07 02:08:44;;;;;;;12.40;8.05;;;;;;;;;;6212774;23;20048;-63
2023/07/07 02:11:10;;;;;;;11.13;8.18;;;;;;;;;;6212780;23;20070;-63
2023/07/07 02:13:36;;;;;;;12.45;8.23;;;;;;;;;;6212308;23;20451;-63
2023/07/07 02:16:03;;;;;;;12.98;9.55;;;;;;;;;;6212873;23;20024;-63
2023/07/07 02:18:29;;;;;;;14.13;8.80;;;;;;;;;;6212822;23;20024;-63
2023/07/07 02:20:55;;;;;;;14.68;9.13;;;;;;;;;;6212134;23;20092;-63
2023/07/07 02:23:21;;;;;;;12.02;8.73;;;;;;;;;;6212612;23;20095;-63
2023/07/07 02:25:47;;;;;;;12.35;9.73;;;;;;;;;;6212744;23;20491;-63
2023/07/07 02:28:13;;;;;;;14.00;10.15;;;;;;;;;;6212203;23;20044;-63
2023/07/07 02:30:39;;;;;;;15.80;10.68;;;;;;;;;;6212777;23;20024;-63
2023/07/07 02:33:08;;;;;;;14.30;10.95;;;;;;;;;;6212305;23;20088;-63
2023/07/07 02:35:34;;;;;;;20.10;10.25;;;;;;;;;;6211884;23;20321;-63
2023/07/07 02:38:00;;;;;;;12.43;10.63;;;;;;;;;;6212444;23;20082;-63
2023/07/07 02:40:26;;;;;;;17.48;11.73;;;;;;;;;;6212442;23;20023;-63
2023/07/07 02:42:52;;;;;;;17.15;11.43;;;;;;;;;;6211562;23;20025;-63
2023/07/07 02:45:18;;;;;;;14.15;11.43;;;;;;;;;;6212673;23;20015;-63
2023/07/07 02:47:44;;;;;;;15.63;11.02;;;;;;;;;;6212598;23;20043;-63
2023/07/07 02:50:10;;;;;;;14.80;11.77;;;;;;;;;;6212907;23;20016;-63
2023/07/07 02:52:37;;;;;;;19.50;12.15;;;;;;;;;;6214690;23;20092;-63
2023/07/07 02:55:03;;;;;;;14.40;11.38;;;;;;;;;;6187630;23;20020;-63
2023/07/07 02:57:29;;;;;;;18.15;12.27;;;;;;;;;;6214211;23;20020;-63
2023/07/07 02:59:55;;;;;;;18.38;12.55;;;;;;;;;;6214482;23;20023;-63
2023/07/07 03:02:21;;;;;;;16.27;12.30;;;;;;;;;;6214231;23;20016;-63
2023/07/07 03:04:47;;;;;;;17.27;12.45;;;;;;;;;;6214126;23;20092;-63
2023/07/07 03:07:13;;;;;;;19.50;13.10;;;;;;;;;;6214564;23;20013;-63
2023/07/07 03:09:39;;;;;;;17.10;12.15;;;;;;;;;;6214581;23;20617;-63
2023/07/07 03:12:06;;;;;;;18.70;13.18;;;;;;;;;;6213851;23;20527;-63
2023/07/07 03:14:32;;;;;;;16.05;11.98;;;;;;;;;;6214484;23;20079;-63
2023/07/07 03:16:58;;;;;;;23.42;12.45;;;;;;;;;;6214499;23;20016;-63
2023/07/07 03:19:24;;;;;;;19.23;12.85;;;;;;;;;;6213535;23;20074;-63
2023/07/07 03:21:53;;;;;;;18.33;13.70;;;;;;;;;;6213910;23;20023;-63
2023/07/07 03:24:19;;;;;;;14.48;12.63;;;;;;;;;;6214251;23;20016;-63
2023/07/07 03:26:46;;;;;;;19.38;13.75;;;;;;;;;;6214022;23;20013;-63
2023/07/07 03:29:12;;;;;;;16.63;13.20;;;;;;;;;;6214230;23;20020;-63
2023/07/07 03:31:38;;;;;;;20.67;13.57;;;;;;;;;;6214300;23;20020;-63
2023/07/07 03:34:05;;;;;;;18.85;14.57;;;;;;;;;;6213046;23;20382;-63
2023/07/07 03:36:32;;;;;;;18.63;14.07;;;;;;;;;;6213613;23;20407;-63
2023/07/07 03:38:59;;;;;;;20.50;13.60;;;;;;;;;;6214331;23;20047;-63
2023/07/07 03:41:26;;;;;;;19.08;13.25;;;;;;;;;;6213406;23;20013;-63
2023/07/07 03:43:53;;;;;;;20.40;13.70;;;;;;;;;;6214113;23;20329;-63
2023/07/07 03:46:20;;;;;;;20.55;14.45;;;;;;;;;;6214075;23;20013;-63
2023/07/07 03:48:47;;;;;;;16.73;14.07;;;;;;;;;;6213559;23;20012;-63
2023/07/07 03:51:13;;;;;;;20.77;14.07;;;;;;;;;;6213972;23;20012;-63
2023/07/07 03:53:40;;;;;;;20.52;13.90;;;;;;;;;;6214145;23;20376;-63
2023/07/07 03:56:06;;;;;;;24.10;14.02;;;;;;;;;;6213626;23;20012;-63
2023/07/07 03:58:33;;;;;;;20.70;15.02;;;;;;;;;;6213828;23;20017;-63
2023/07/07 04:01:06;;;;;;;19.38;14.63;;;;;;;;;;6213455;23;20017;-63
2023/07/07 04:03:32;;;;;;;20.15;14.50;;;;;;;;;;6213095;23;20017;-63
2023/07/07 04:06:00;;;;;;;18.50;14.75;;;;;;;;;;6214038;23;20509;-63
2023/07/07 04:08:26;;;;;;;22.45;13.77;;;;;;;;;;6213490;23;20019;-63
2023/07/07 04:10:59;;;;;;;20.35;14.40;;;;;;;;;;6213277;23;20019;-63
2023/07/07 04:13:25;;;;;;;18.85;14.93;;;;;;;;;;6213909;23;20017;-63
2023/07/07 04:16:11;;;;;;;19.75;14.43;;;;;;;;;;6213531;23;20012;-63
2023/07/07 04:18:37;;;;;;;24.75;15.52;;;;;;;;;;6213031;23;20017;-63
2023/07/07 04:21:09;;;;;;;20.60;14.45;;;;;;;;;;6213164;23;20019;-63
2023/07/07 04:23:35;;;;;;;18.88;14.02;;;;;;;;;;6213516;23;20031;-63
2023/07/07 04:26:02;;;;;;;21.77;15.38;;;;;;;;;;6213244;23;20408;-63
2023/07/07 04:28:29;;;;;;;21.02;15.55;;;;;;;;;;6213609;23;20019;-63
2023/07/07 04:30:56;;;;;;;20.10;14.75;;;;;;;;;;6213184;23;20012;-63
2023/07/07 04:33:23;;;;;;;21.80;15.40;;;;;;;;;;6213141;23;20074;-63
2023/07/07 04:35:54;;;;;;;22.17;15.52;;;;;;;;;;6213082;23;20587;-63
2023/07/07 04:38:20;;;;;;;20.63;15.00;;;;;;;;;;6213754;23;20084;-63
2023/07/07 04:40:47;;;;;;;19.42;15.02;;;;;;;;;;6213374;23;20479;-63
2023/07/07 04:43:13;;;;;;;24.63;15.95;;;;;;;;;;6213794;23;20017;-63
2023/07/07 04:45:39;;;;;;;22.40;15.65;;;;;;;;;;6213841;23;20016;-63
2023/07/07 04:48:05;;;;;;;21.00;15.77;;;;;;;;;;6212994;23;20045;-63
2023/07/07 04:50:34;;;;;;;21.02;16.15;;;;;;;;;;6213894;23;20019;-63
2023/07/07 04:53:00;;;;;;;19.48;14.93;;;;;;;;;;6213578;23;20021;-63
2023/07/07 04:55:26;;;;;;;19.77;15.02;;;;;;;;;;6213211;23;20019;-63
2023/07/07 04:57:53;;;;;;;21.98;14.25;;;;;;;;;;6213747;23;20020;-63
2023/07/07 05:00:20;;;;;;;22.45;15.50;;;;;;;;;;6186971;23;20024;-63
2023/07/07 05:02:46;;;;;;;24.70;15.88;;;;;;;;;;6213307;23;20009;-63
2023/07/07 05:05:12;;;;;;;23.13;15.48;;;;;;;;;;6213496;23;20426;-63
2023/07/07 05:07:38;;;;;;;20.15;15.00;;;;;;;;;;6213629;23;20759;-63
2023/07/07 05:10:05;;;;;;;21.13;15.50;;;;;;;;;;6213297;23;20096;-63
2023/07/07 05:12:31;;;;;;;19.42;14.88;;;;;;;;;;6213571;23;20067;-63
2023/07/07 05:14:57;;;;;;;20.85;15.18;;;;;;;;;;6213878;23;20100;-63
2023/07/07 05:17:23;;;;;;;19.25;15.52;;;;;;;;;;6213380;23;20016;-63
2023/07/07 05:19:50;;;;;;;22.27;14.65;;;;;;;;;;6213851;23;20020;-63
2023/07/07 05:22:16;;;;;;;21.67;15.13;;;;;;;;;;6213268;23;20024;-63
2023/07/07 05:24:42;;;;;;;21.50;15.45;;;;;;;;;;6213083;23;20016;-63
2023/07/07 05:27:08;;;;;;;20.00;14.82;;;;;;;;;;6213557;23;20420;-63
2023/07/07 05:29:34;;;;;;;26.45;16.20;;;;;;;;;;6213659;23;20590;-63
2023/07/07 05:32:00;;;;;;;21.50;15.35;;;;;;;;;;6213088;23;20039;-63
2023/07/07 05:34:26;;;;;;;23.17;15.85;;;;;;;;;;6213216;23;20021;-63
2023/07/07 05:36:52;;;;;;;22.50;16.17;;;;;;;;;;6212430;23;20027;-63
2023/07/07 05:39:18;;;;;;;21.30;16.92;;;;;;;;;;6212261;23;20082;-63
2023/07/07 05:41:44;;;;;;;24.15;16.17;;;;;;;;;;6212690;23;20587;-63
2023/07/07 05:44:10;;;;;;;21.50;17.20;;;;;;;;;;6213214;23;20034;-64
2023/07/07 05:46:36;;;;;;;23.15;16.00;;;;;;;;;;6212647;23;20009;-64
2023/07/07 05:49:02;;;;;;;22.95;15.32;;;;;;;;;;6212461;23;20096;-64
2023/07/07 05:51:28;;;;;;;18.95;14.95;;;;;;;;;;6212355;23;20016;-64
2023/07/07 05:53:55;;;;;;;21.58;14.57;;;;;;;;;;6212966;23;20013;-64
2023/07/07 05:56:23;;;;;;;22.58;15.57;;;;;;;;;;6212806;23;20016;-64
2023/07/07 05:58:50;;;;;;;22.33;15.85;;;;;;;;;;6213116;23;20067;-63
2023/07/07 06:01:17;;;;;;;21.52;14.48;;;;;;;;;;6212787;23;20023;-63
2023/07/07 06:03:43;;;;;;;22.88;14.90;;;;;;;;;;6212138;23;20020;-63
2023/07/07 06:06:09;;;;;;;21.38;14.13;;;;;;;;;;6212891;23;20016;-63
2023/07/07 06:08:35;;;;;;;19.67;14.23;;;;;;;;;;6212991;23;20032;-63
2023/07/07 06:11:01;;;;;;;18.95;13.32;;;;;;;;;;6212372;23;20052;-63
2023/07/07 06:13:28;;;;;;;21.38;14.85;;;;;;;;;;6212716;23;20521;-63
2023/07/07 06:15:54;;;;;;;20.63;14.18;;;;;;;;;;6212812;23;20040;-63
2023/07/07 06:18:21;;;;;;;21.50;13.68;;;;;;;;;;6212405;23;20432;-64
2023/07/07 06:20:50;;;;;;;17.42;13.80;;;;;;;;;;6213030;23;20024;-64
2023/07/07 06:23:16;;;;;;;18.35;13.30;;;;;;;;;;6212453;23;20016;-63
2023/07/07 06:25:42;;;;;;;17.83;12.43;;;;;;;;;;6211933;23;20063;-62
2023/07/07 06:28:08;;;;;;;18.83;12.88;;;;;;;;;;6212639;23;20096;-62
2023/07/07 06:30:34;;;;;;;21.13;12.30;;;;;;;;;;6212854;23;20404;-61
2023/07/07 06:33:02;;;;;;;17.20;11.60;;;;;;;;;;6212447;23;20016;-62
2023/07/07 06:35:29;;;;;;;17.75;12.05;;;;;;;;;;6212269;23;20039;-62
2023/07/07 06:37:55;;;;;;;19.70;12.82;;;;;;;;;;6212311;23;20020;-62
2023/07/07 06:40:21;;;;;;;18.85;11.48;;;;;;;;;;6211893;23;20017;-62
2023/07/07 06:42:48;;;;;;;15.38;11.15;;;;;;;;;;6212223;23;20470;-62
2023/07/07 06:45:14;;;;;;;17.10;11.75;;;;;;;;;;6212672;23;20017;-63
2023/07/07 06:47:40;;;;;;;15.35;9.70;;;;;;;;;;6212159;23;20024;-63
2023/07/07 06:50:06;;;;;;;14.25;10.38;;;;;;;;;;6212760;23;20008;-63
2023/07/07 06:52:32;;;;;;;17.30;10.40;;;;;;;;;;6212759;23;20016;-62
2023/07/07 06:54:59;;;;;;;15.73;10.25;;;;;;;;;;6212319;23;20112;-63
2023/07/07 06:57:25;;;;;;;13.32;10.15;;;;;;;;;;6212709;23;20024;-63
2023/07/07 06:59:51;;;;;;;14.98;8.93;;;;;;;;;;6212730;23;20012;-63
2023/07/07 07:02:17;;;;;;;19.75;9.18;;;;;;;;;;6211846;23;20055;-63
2023/07/07 07:04:43;;;;;;;13.73;9.05;;;;;;;;;;6212902;23;20012;-62
2023/07/07 07:07:10;;;;;;;15.32;9.20;;;;;;;;;;6212400;23;20023;-63
2023/07/07 07:09:36;;;;;;;12.65;7.72;;;;;;;;;;6212186;23;20017;-62
2023/07/07 07:12:02;;;;;;;15.18;8.32;;;;;;;;;;6212766;23;20095;-63
2023/07/07 07:14:28;;;;;;;12.73;7.30;;;;;;;;;;6212691;23;20016;-62
2023/07/07 07:16:54;;;;;;;11.35;7.65;;;;;;;;;;6211991;23;20016;-63
2023/07/07 07:19:20;;;;;;;12.65;7.43;;;;;;;;;;6212688;23;20780;-62
2023/07/07 07:21:46;;;;;;;12.20;7.88;;;;;;;;;;6212349;23;20067;-62
2023/07/07 07:24:12;;;;;;;11.20;6.57;;;;;;;;;;6211976;23;20012;-62
2023/07/07 07:26:38;;;;;;;10.45;6.70;;;;;;;;;;6212294;23;20016;-63
2023/07/07 07:29:04;;;;;;;11.43;6.13;;;;;;;;;;6212699;23;20038;-63
2023/07/07 07:31:30;;;;;;;9.35;5.68;;;;;;;;;;6211530;23;20503;-64
2023/07/07 07:34:16;;;;;;;13.85;5.90;;;;;;;;;;6212315;23;20017;-63
2023/07/07 07:36:42;;;;;;;8.90;6.03;;;;;;;;;;6212376;23;20028;-64
2023/07/07 07:39:08;;;;;;;11.75;5.80;;;;;;;;;;6213329;23;20070;-63
2023/07/07 07:41:37;;;;;;;8.85;4.95;;;;;;;;;;6213908;23;20071;-64
2023/07/07 07:44:03;;;;;;;10.82;5.57;;;;;;;;;;6213631;23;20443;-63
2023/07/07 07:46:29;;;;;;;8.02;5.30;;;;;;;;;;6213564;23;20005;-64
2023/07/07 07:48:55;;;;;;;8.43;5.50;;;;;;;;;;6214229;23;20016;-63
2023/07/07 07:51:21;;;;;;;9.75;5.03;;;;;;;;;;6214027;23;20028;-63
2023/07/07 07:53:47;;;;;;;7.65;4.70;;;;;;;;;;6213509;23;20103;-63
2023/07/07 07:56:13;;;;;;;6.65;4.68;;;;;;;;;;6214009;23;20023;-64
2023/07/07 07:58:39;;;;;;;6.80;4.00;;;;;;;;;;6214052;23;20013;-64
2023/07/07 08:01:05;;;;;;;8.38;4.78;;;;;;;;;;6186504;23;20020;-63
2023/07/07 08:03:31;;;;;;;6.70;3.97;;;;;;;;;;6213777;23;20017;-63
2023/07/07 08:05:57;;;;;;;9.88;4.25;;;;;;;;;;6214168;23;20040;-63
2023/07/07 08:08:23;;;;;;;10.63;4.05;;;;;;;;;;6213478;23;20019;-63
2023/07/07 08:10:49;;;;;;;7.10;3.70;;;;;;;;;;6214059;23;20087;-63
2023/07/07 08:13:15;;;;;;;7.63;3.22;;;;;;;;;;6213928;23;20019;-63
2023/07/07 08:15:42;;;;;;;5.38;3.50;;;;;;;;;;6213197;23;20083;-63
2023/07/07 08:18:08;;;;;;;5.75;3.20;;;;;;;;;;6214055;23;20016;-64
2023/07/07 08:20:34;;;;;;;7.80;3.40;;;;;;;;;;6214280;23;20012;-63
2023/07/07 08:23:00;;;;;;;8.95;3.33;;;;;;;;;;6213106;23;20017;-64
2023/07/07 08:25:33;;;;;;;7.38;3.60;;;;;;;;;;6213894;23;20515;-64
2023/07/07 08:28:00;;;;;;;;;;;;;;;;;;6214644;23;20059;-63
2023/07/07 08:30:26;;;;;;;4.97;2.95;;;;;;;;;;6213420;23;19911;-63
2023/07/07 08:32:52;;;;;;;4.88;2.85;;;;;;;;;;6213730;23;20420;-65
2023/07/07 08:35:18;;;;;;;8.93;3.30;;;;;;;;;;6213169;23;20103;-65
2023/07/07 08:37:44;;;;;;;6.80;2.38;;;;;;;;;;6213258;23;20448;-63
2023/07/07 08:40:13;;;;;;;4.55;2.50;;;;;;;;;;6213511;23;20609;-63
2023/07/07 08:42:40;;;;;;;4.28;2.42;;;;;;;;;;6213569;23;20558;-63
2023/07/07 08:45:12;;;;;;;7.03;3.17;;;;;;;;;;6213232;23;20015;-64
2023/07/07 08:47:38;;;;;;;5.78;2.78;;;;;;;;;;6186342;23;20055;-64
2023/07/07 08:50:13;;;;;;;4.72;2.35;;;;;;;;;;6213426;23;20013;-63
2023/07/07 08:52:40;;;;;;;5.68;2.53;;;;;;;;;;6213171;23;20059;-63
2023/07/07 08:55:24;;;;;;;6.45;2.40;;;;;;;;;;6213575;23;20051;-63
2023/07/07 08:58:06;;;;;;;3.55;2.60;;;;;;;;;;6213670;23;20016;-63
2023/07/07 09:00:35;;;;;;;3.63;2.37;;;;;;;;;;6213160;23;20422;-63
2023/07/07 09:03:18;;;;;;;7.90;2.63;;;;;;;;;;6213096;23;20023;-63
2023/07/07 09:05:54;;;;;;;5.35;2.40;;;;;;;;;;6213454;23;20013;-63
2023/07/07 09:08:29;;;;;;;5.03;2.53;;;;;;;;;;6212698;23;20016;-63
2023/07/07 09:11:04;;;;;;;3.67;1.98;;;;;;;;;;6186476;23;20008;-63
2023/07/07 09:13:32;;;;;;;7.65;2.63;;;;;;;;;;6213459;23;20048;-63
2023/07/07 09:16:02;;;;;;;4.97;2.25;;;;;;;;;;6212922;23;20012;-63
2023/07/07 09:18:34;;;;;;;5.20;2.10;;;;;;;;;;6213435;23;20071;-63
2023/07/07 09:21:00;;;;;;;;;;;;;;;;;;6214051;23;20067;-63
2023/07/07 09:23:28;;;;;;;5.15;2.40;;;;;;;;;;6185761;23;19916;-64
2023/07/07 09:25:57;;;;;;;7.00;2.25;;;;;;;;;;6213067;23;20067;-63
2023/07/07 09:28:23;;;;;;;4.38;2.58;;;;;;;;;;6213216;23;20100;-64
2023/07/07 09:30:53;;;;;;;3.40;2.40;;;;;;;;;;6212856;23;20594;-64
2023/07/07 09:33:20;;;;;;;4.22;2.35;;;;;;;;;;6213461;23;20019;-63
2023/07/07 09:35:55;;;;;;;4.10;2.25;;;;;;;;;;6212634;23;20028;-64
2023/07/07 09:38:43;;;;;;;3.92;2.10;;;;;;;;;;6211093;23;20013;-63
2023/07/07 09:41:20;;;;;;;3.53;2.20;;;;;;;;;;6213035;23;20046;-63
2023/07/07 09:43:46;;;;;;;4.35;2.28;;;;;;;;;;6211658;23;20055;-63
2023/07/07 09:46:21;;;;;;;3.53;2.40;;;;;;;;;;6212893;23;20012;-63
2023/07/07 09:48:50;;;;;;;4.88;1.80;;;;;;;;;;6213049;23;20523;-63
2023/07/07 09:51:33;;;;;;;4.68;2.00;;;;;;;;;;6212225;23;20017;-64
2023/07/07 09:53:59;;;;;;;4.20;2.13;;;;;;;;;;6212794;23;20027;-63
2023/07/07 09:56:28;;;;;;;4.25;2.30;;;;;;;;;;6212542;23;20016;-63
2023/07/07 09:59:06;;;;;;;5.55;2.25;;;;;;;;;;6211855;23;20067;-63
2023/07/07 10:01:34;;;;;;;4.03;2.00;;;;;;;;;;6212388;23;20020;-64
2023/07/07 10:04:01;;;;;;;5.65;2.20;;;;;;;;;;6211832;23;20096;-63
2023/07/07 10:06:31;;;;;;;2.83;2.08;;;;;;;;;;6211551;23;20129;-63
2023/07/07 10:08:58;;;;;;;3.13;1.80;;;;;;;;;;6212425;23;20013;-63
2023/07/07 10:11:27;;;;;;;4.90;2.20;;;;;;;;;;6212034;23;20066;-63
2023/07/07 10:13:54;;;;;;;6.03;2.08;;;;;;;;;;6212089;23;20089;-63
2023/07/07 10:16:29;;;;;;;6.53;1.92;;;;;;;;;;6212570;23;20024;-63
2023/07/07 10:18:57;;;;;;;4.82;2.25;;;;;;;;;;6212170;23;20016;-64
2023/07/07 10:21:23;;;;;;;8.30;2.33;;;;;;;;;;6211215;23;20028;-64
2023/07/07 10:23:49;;;;;;;4.93;2.20;;;;;;;;;;6212137;23;20013;-64
2023/07/07 10:26:15;;;;;;;4.93;2.40;;;;;;;;;;6212571;23;20015;-63
2023/07/07 10:28:41;;;;;;;3.97;2.20;;;;;;;;;;6211645;23;20013;-64
2023/07/07 10:31:09;;;;;;;6.00;2.38;;;;;;;;;;6211917;23;20015;-64
2023/07/07 10:33:37;;;;;;;6.07;2.13;;;;;;;;;;6212564;23;20013;-64
2023/07/07 10:36:22;;;;;;;4.45;2.20;;;;;;;;;;6211200;23;20185;-64
2023/07/07 10:38:48;;;;;;;3.20;2.20;;;;;;;;;;6212063;23;20048;-63
2023/07/07 10:41:14;;;;;;;2.75;1.98;;;;;;;;;;6185322;23;20017;-63
2023/07/07 10:43:40;;;;;;;3.97;2.60;;;;;;;;;;6211867;23;20016;-61
2023/07/07 10:46:11;;;;;;;7.97;2.08;;;;;;;;;;6212314;23;20419;-61
2023/07/07 10:48:39;;;;;;;3.83;2.15;;;;;;;;;;6211965;23;20393;-63
2023/07/07 10:51:15;;;;;;;3.08;1.90;;;;;;;;;;6211382;23;20012;-61
2023/07/07 10:53:59;;;;;;;6.60;3.22;;;;;;;;;;6211950;23;20021;-61
2023/07/07 10:56:28;;;;;;;4.85;2.28;;;;;;;;;;6211966;23;20094;-62
2023/07/07 10:59:13;;;;;;;6.18;2.53;;;;;;;;;;6211792;23;20083;-61
2023/07/07 11:01:48;;;;;;;5.28;2.10;;;;;;;;;;6212068;23;20020;-61
2023/07/07 11:04:18;;;;;;;6.18;2.63;;;;;;;;;;6210417;23;20090;-62
2023/07/07 11:06:50;;;;;;;4.25;2.38;;;;;;;;;;6211727;23;20020;-62
2023/07/07 11:09:23;;;;;;;4.97;2.08;;;;;;;;;;6212020;23;20072;-61
2023/07/07 11:12:05;;;;;;;5.50;2.10;;;;;;;;;;6213369;23;20701;-61
2023/07/07 11:14:34;;;;;;;4.75;2.33;;;;;;;;;;6213867;23;20048;-61
2023/07/07 11:17:19;;;;;;;4.97;2.25;;;;;;;;;;6214388;23;20307;-61
2023/07/07 11:19:59;;;;;;;5.90;2.47;;;;;;;;;;6213785;23;20016;-61
2023/07/07 11:22:34;;;;;;;3.15;2.00;;;;;;;;;;6213676;23;20024;-61
2023/07/07 11:25:13;;;;;;;4.82;2.10;;;;;;;;;;6214094;23;20017;-61
2023/07/07 11:27:48;;;;;;;4.55;2.20;;;;;;;;;;6213500;23;20013;-61
2023/07/07 11:30:17;;;;;;;5.60;2.40;;;;;;;;;;6214114;23;20012;-61
2023/07/07 11:32:49;;;;;;;4.13;2.17;;;;;;;;;;6213800;23;20056;-63
2023/07/07 11:35:31;;;;;;;5.00;2.28;;;;;;;;;;6213009;23;20012;-62
2023/07/07 11:38:36;;;;;;;3.67;2.20;;;;;;;;;;6213942;23;20024;-61
2023/07/07 11:41:17;;;;;;;5.53;2.38;;;;;;;;;;6091663;23;20050;-62
2023/07/07 11:43:52;;;;;;;5.77;2.20;;;;;;;;;;6091329;23;20078;-61
2023/07/07 11:46:37;;;;;;;3.72;2.05;;;;;;;;;;6168456;23;20015;-62
2023/07/07 11:49:15;;;;;;;8.10;2.30;;;;;;;;;;6213801;23;20016;-62
2023/07/07 11:51:44;;;;;;;3.20;1.90;;;;;;;;;;6213225;23;20020;-62
2023/07/07 11:54:23;;;;;;;3.53;2.30;;;;;;;;;;6213759;23;20016;-62
2023/07/07 11:56:51;;;;;;;3.83;2.10;;;;;;;;;;6213280;23;20436;-62
2023/07/07 11:59:24;;;;;;;4.97;2.35;;;;;;;;;;6213729;23;20013;-62
2023/07/07 12:01:52;;;;;;;4.28;2.42;;;;;;;;;;6213600;23;20028;-62
2023/07/07 12:04:22;;;;;;;2.95;2.00;;;;;;;;;;6213076;23;20486;-62
2023/07/07 12:06:52;;;;;;;3.33;2.10;;;;;;;;;;6213404;23;20044;-61
2023/07/07 12:09:24;;;;;;;4.57;2.42;;;;;;;;;;6213577;23;20094;-61
2023/07/07 12:11:51;;;;;;;3.78;2.40;;;;;;;;;;6212906;23;20013;-61
2023/07/07 12:14:23;;;;;;;3.50;2.00;;;;;;;;;;6213757;23;20368;-62
2023/07/07 12:16:50;;;;;;;4.80;2.05;;;;;;;;;;6186737;23;20075;-62
2023/07/07 12:19:31;;;;;;;3.83;2.13;;;;;;;;;;6212977;23;20012;-62
2023/07/07 12:21:59;;;;;;;4.00;1.97;;;;;;;;;;6212964;23;20020;-62
2023/07/07 12:24:29;;;;;;;4.22;2.15;;;;;;;;;;6213166;23;20228;-62
2023/07/07 12:27:08;;;;;;;4.15;2.47;;;;;;;;;;6213067;23;20009;-62
2023/07/07 12:29:36;;;;;;;4.35;2.20;;;;;;;;;;6212755;23;20030;-61
2023/07/07 12:32:02;;;;;;;4.25;2.38;;;;;;;;;;6213331;23;20070;-62
2023/07/07 12:34:48;;;;;;;5.20;2.15;;;;;;;;;;6212760;23;20021;-62
2023/07/07 12:37:16;;;;;;;5.43;2.15;;;;;;;;;;6213487;23;20031;-63
2023/07/07 12:39:54;;;;;;;3.97;2.10;;;;;;;;;;6213057;23;20055;-62
2023/07/07 12:42:21;;;;;;;3.25;2.10;;;;;;;;;;6212304;23;20096;-62
2023/07/07 12:44:47;;;;;;;3.15;2.20;;;;;;;;;;6212801;23;20013;-62
2023/07/07 12:47:27;;;;;;;2.95;1.92;;;;;;;;;;6213219;23;20335;-63
2023/07/07 12:49:58;;;;;;;2.58;1.92;;;;;;;;;;6212981;23;20024;-62
2023/07/07 12:52:26;;;;;;;2.40;1.88;;;;;;;;;;6213198;23;20491;-61
2023/07/07 12:54:53;;;;;;;4.20;2.45;;;;;;;;;;6213378;23;20013;-61
2023/07/07 12:57:19;;;;;;;3.50;2.00;;;;;;;;;;6212501;23;20021;-61
2023/07/07 12:59:45;;;;;;;3.38;2.13;;;;;;;;;;6212967;23;20012;-63
2023/07/07 13:02:18;;;;;;;3.58;2.00;;;;;;;;;;6212747;23;20027;-63
2023/07/07 13:04:49;;;;;;;5.50;1.98;;;;;;;;;;6212394;23;20033;-63
2023/07/07 13:07:19;;;;;;;2.90;2.00;;;;;;;;;;6212899;23;20410;-63
2023/07/07 13:09:47;;;;;;;3.33;2.20;;;;;;;;;;6213092;23;20040;-63
2023/07/07 13:12:31;;;;;;;2.45;2.00;;;;;;;;;;6212684;23;20678;-63
2023/07/07 13:15:08;;;;;;;2.60;2.20;;;;;;;;;;6213311;23;20062;-63
2023/07/07 13:17:35;;;;;;;3.65;2.15;;;;;;;;;;6213128;23;20066;-63
2023/07/07 13:20:02;;;;;;;2.42;1.70;;;;;;;;;;6212663;23;20025;-63
2023/07/07 13:22:35;;;;;;;3.58;2.42;;;;;;;;;;6212919;23;20013;-63
2023/07/07 13:25:04;;;;;;;3.38;2.17;;;;;;;;;;6212932;23;20016;-63
2023/07/07 13:27:31;;;;;;;5.25;2.47;;;;;;;;;;6212576;23;20087;-63
2023/07/07 13:30:00;;;;;;;3.33;1.90;;;;;;;;;;6186400;23;20013;-63
2023/07/07 13:32:30;;;;;;;3.20;2.03;;;;;;;;;;6213088;23;20451;-63
2023/07/07 13:34:57;;;;;;;2.63;2.00;;;;;;;;;;6212346;23;20313;-63
2023/07/07 13:37:24;;;;;;;2.72;1.90;;;;;;;;;;6213015;23;20108;-63
2023/07/07 13:39:50;;;;;;;3.42;2.20;;;;;;;;;;6212803;23;20031;-63
2023/07/07 13:42:21;;;;;;;3.72;2.25;;;;;;;;;;6212201;23;20024;-63
2023/07/07 13:44:47;;;;;;;3.33;2.05;;;;;;;;;;6213128;23;20057;-63
2023/07/07 13:47:16;;;;;;;3.03;2.08;;;;;;;;;;6212988;23;20370;-63
2023/07/07 13:49:42;;;;;;;2.95;2.10;;;;;;;;;;6212395;23;20016;-63
2023/07/07 13:52:14;;;;;;;4.15;2.20;;;;;;;;;;6212921;23;20394;-63
2023/07/07 13:54:40;;;;;;;3.67;1.90;;;;;;;;;;6213025;23;20025;-63
2023/07/07 13:57:07;;;;;;;2.85;2.20;;;;;;;;;;6212424;23;20335;-63
2023/07/07 13:59:33;;;;;;;3.67;1.98;;;;;;;;;;6212844;23;20351;-63
2023/07/07 14:01:59;;;;;;;3.40;1.90;;;;;;;;;;6212135;23;20020;-63
2023/07/07 14:04:28;;;;;;;3.92;2.17;;;;;;;;;;6212094;23;20440;-63
2023/07/07 14:06:54;;;;;;;1.90;1.70;;;;;;;;;;6212840;23;20077;-63
2023/07/07 14:09:23;;;;;;;2.47;1.80;;;;;;;;;;6212707;23;20023;-63
2023/07/07 14:11:56;;;;;;;3.63;2.00;;;;;;;;;;6212256;23;20536;-63
2023/07/07 14:14:22;;;;;;;5.85;2.03;;;;;;;;;;6212694;23;20056;-63
2023/07/07 14:16:54;;;;;;;3.00;2.00;;;;;;;;;;6212888;23;20020;-63
2023/07/07 14:19:20;;;;;;;;;;;;;;;;;;6212857;23;20717;-63
2023/07/07 14:21:47;;;;;;;2.83;1.90;;;;;;;;;;6212453;23;19920;-63
2023/07/07 14:24:15;;;;;;;3.38;1.60;;;;;;;;;;6212727;23;20023;-63
2023/07/07 14:26:42;;;;;;;3.58;1.85;;;;;;;;;;6212238;23;20040;-63
2023/07/07 14:29:14;;;;;;;2.83;1.60;;;;;;;;;;6212431;23;20008;-63
2023/07/07 14:31:40;;;;;;;5.15;1.60;;;;;;;;;;6212615;23;20028;-63
2023/07/07 14:34:06;;;;;;;2.90;1.90;;;;;;;;;;6211912;23;20020;-63
2023/07/07 14:36:41;;;;;;;3.60;2.20;;;;;;;;;;6212618;23;20204;-63
2023/07/07 14:39:22;;;;;;;4.80;1.83;;;;;;;;;;6212741;23;20119;-63
2023/07/07 14:41:48;;;;;;;3.35;2.08;;;;;;;;;;6212257;23;20017;-63
2023/07/07 14:44:33;;;;;;;2.70;2.00;;;;;;;;;;6212499;23;20008;-63
2023/07/07 14:46:59;;;;;;;4.78;2.47;;;;;;;;;;6213316;23;20091;-63